createdAt,value
2023-06-11T00:00:23.534Z,12.50
2023-06-11T00:05:31.430Z,11.83
2023-06-11T00:10:33.183Z,13.93
2023-06-11T00:15:34.931Z,11.20
2023-06-11T00:20:41.824Z,12.43
2023-06-11T00:25:43.623Z,11.67
2023-06-11T00:30:45.590Z,11.73
2023-06-11T00:35:47.394Z,11.67
2023-06-11T00:40:56.280Z,12.90
2023-06-11T00:45:58.202Z,12.03
2023-06-11T00:51:00.313Z,13.10
2023-06-11T00:56:02.915Z,12.73
2023-06-11T01:01:06.830Z,12.40
2023-06-11T01:06:18.226Z,14.23
2023-06-11T01:11:23.732Z,11.17
2023-06-11T01:16:44.123Z,10.97
2023-06-11T01:21:54.653Z,12.00
2023-06-11T01:27:09.506Z,11.50
2023-06-11T01:32:11.444Z,13.60
2023-06-11T01:37:13.246Z,11.13
2023-06-11T01:42:15.010Z,13.07
2023-06-11T01:47:16.837Z,10.80
2023-06-11T01:52:18.618Z,12.27
2023-06-11T01:57:20.394Z,11.73
2023-06-11T02:02:22.187Z,11.77
2023-06-11T02:07:24.126Z,11.60
2023-06-11T02:12:28.401Z,10.90
2023-06-11T02:17:30.308Z,12.17
2023-06-11T02:22:32.225Z,12.73
2023-06-11T02:27:34.009Z,13.90
2023-06-11T02:32:35.873Z,12.30
2023-06-11T02:37:37.664Z,14.50
2023-06-11T02:42:39.558Z,11.33
2023-06-11T02:47:41.360Z,11.87
2023-06-11T02:52:50.423Z,11.60
2023-06-11T02:57:52.159Z,11.53
2023-06-11T03:02:54.195Z,12.00
2023-06-11T03:07:56.128Z,12.87
2023-06-11T03:12:58.197Z,13.50
2023-06-11T03:18:04.499Z,15.00
2023-06-11T03:23:07.610Z,12.47
2023-06-11T03:28:09.598Z,12.80
2023-06-11T03:33:11.578Z,15.90
2023-06-11T03:38:13.401Z,12.23
2023-06-11T03:43:19.641Z,11.50
2023-06-11T03:48:21.565Z,11.93
2023-06-11T03:53:23.468Z,11.93
2023-06-11T03:58:25.249Z,11.20
2023-06-11T04:03:27.113Z,13.63
2023-06-11T04:08:28.915Z,13.70
2023-06-11T04:13:30.901Z,13.47
2023-06-11T04:18:32.724Z,13.00
2023-06-11T04:23:36.534Z,11.37
2023-06-11T04:28:38.493Z,11.73
2023-06-11T04:33:40.344Z,12.80
2023-06-11T04:38:46.113Z,11.67
2023-06-11T04:43:48.198Z,12.97
2023-06-11T04:48:51.527Z,12.00
2023-06-11T04:53:55.570Z,11.40
2023-06-11T04:58:57.379Z,11.87
2023-06-11T05:04:01.499Z,14.03
2023-06-11T05:09:04.434Z,12.53
2023-06-11T05:14:06.488Z,14.33
2023-06-11T05:19:08.386Z,13.50
2023-06-11T05:24:20.431Z,12.67
2023-06-11T05:29:22.941Z,14.10
2023-06-11T05:34:27.416Z,11.40
2023-06-11T05:39:34.687Z,12.30
2023-06-11T05:44:36.510Z,12.27
2023-06-11T05:49:38.300Z,11.37
2023-06-11T05:54:40.123Z,13.20
2023-06-11T05:59:41.893Z,13.43
2023-06-11T06:04:49.535Z,11.57
2023-06-11T06:09:51.732Z,12.60
2023-06-11T06:14:53.505Z,13.17
2023-06-11T06:19:56.393Z,11.27
2023-06-11T06:25:01.627Z,12.13
2023-06-11T06:30:07.131Z,11.63
2023-06-11T06:35:10.175Z,14.00
2023-06-11T06:40:13.665Z,12.23
2023-06-11T06:45:15.889Z,11.30
2023-06-11T06:50:17.768Z,14.30
2023-06-11T06:55:19.576Z,11.20
2023-06-11T07:00:21.719Z,13.53
2023-06-11T07:05:23.574Z,11.20
2023-06-11T07:10:25.696Z,12.13
2023-06-11T07:15:27.522Z,10.93
2023-06-11T07:20:29.516Z,11.97
2023-06-11T07:25:32.217Z,10.00
2023-06-11T07:30:34.717Z,10.43
2023-06-11T07:35:43.804Z,10.27
2023-06-11T07:40:45.774Z,10.10
2023-06-11T07:45:47.532Z,11.07
2023-06-11T07:50:50.457Z,9.60
2023-06-11T07:55:57.919Z,10.43
2023-06-11T08:00:59.857Z,9.90
2023-06-11T08:06:01.731Z,10.23
2023-06-11T08:11:03.598Z,9.90
2023-06-11T08:16:05.904Z,9.97
2023-06-11T08:21:07.771Z,9.87
2023-06-11T08:26:15.020Z,9.87
2023-06-11T08:31:16.994Z,9.47
2023-06-11T08:36:19.028Z,9.70
2023-06-11T08:41:21.769Z,12.17
2023-06-11T08:46:25.296Z,9.60
2023-06-11T08:51:35.093Z,10.43
2023-06-11T08:56:37.023Z,10.67
2023-06-11T09:01:47.152Z,11.43
2023-06-11T09:06:53.548Z,11.10
2023-06-11T09:11:55.835Z,10.10
2023-06-11T09:16:57.616Z,10.85
2023-06-11T09:21:59.579Z,12.60
2023-06-11T09:27:05.504Z,10.20
2023-06-11T09:32:19.482Z,9.75
2023-06-11T09:37:31.903Z,10.75
2023-06-11T09:42:36.830Z,11.65
2023-06-11T09:47:40.294Z,10.73
2023-06-11T09:52:43.304Z,9.98
2023-06-11T09:57:54.305Z,9.52
2023-06-11T10:02:56.218Z,9.10
2023-06-11T10:08:13.520Z,9.93
2023-06-11T10:13:34.484Z,9.52
2023-06-11T10:18:36.534Z,9.25
2023-06-11T10:23:44.920Z,10.25
2023-06-11T10:28:50.471Z,10.57
2023-06-11T10:33:52.492Z,9.73
2023-06-11T10:39:27.768Z,8.63
2023-06-11T10:44:32.894Z,9.43
2023-06-11T10:49:34.694Z,10.98
2023-06-11T10:54:38.150Z,8.48
2023-06-11T10:59:40.230Z,8.68
2023-06-11T11:04:52.804Z,7.70
2023-06-11T11:09:56.848Z,7.85
2023-06-11T11:15:00.447Z,8.07
2023-06-11T11:20:02.490Z,8.00
2023-06-11T11:25:06.331Z,8.20
2023-06-11T11:30:08.819Z,7.63
2023-06-11T11:35:13.205Z,7.45
2023-06-11T11:40:22.792Z,9.63
2023-06-11T11:45:33.256Z,7.43
2023-06-11T11:50:35.477Z,8.60
2023-06-11T12:00:54.603Z,7.65
2023-06-11T12:05:56.467Z,7.53
2023-06-11T12:10:59.456Z,8.18
2023-06-11T12:16:04.160Z,7.40
2023-06-11T12:21:08.425Z,7.78
2023-06-11T12:26:10.362Z,7.28
2023-06-11T12:31:12.230Z,8.55
2023-06-11T12:36:14.102Z,7.22
2023-06-11T12:41:16.911Z,7.45
2023-06-11T12:46:18.906Z,8.25
2023-06-11T12:51:23.792Z,7.38
2023-06-11T12:56:26.741Z,7.88
2023-06-11T13:01:28.732Z,9.18
2023-06-11T13:06:31.052Z,8.57
2023-06-11T13:11:33.467Z,7.97
2023-06-11T13:16:44.092Z,7.95
2023-06-11T13:21:46.425Z,8.27
2023-06-11T13:26:48.275Z,8.25
2023-06-11T13:31:50.944Z,7.10
2023-06-11T13:36:57.141Z,9.25
2023-06-11T13:41:59.225Z,8.90
2023-06-11T13:47:01.490Z,8.20
2023-06-11T13:52:04.964Z,7.47
2023-06-11T13:57:07.255Z,8.00
2023-06-11T14:02:09.270Z,7.72
2023-06-11T14:07:14.091Z,7.60
2023-06-11T14:12:16.004Z,8.63
2023-06-11T14:17:18.646Z,7.85
2023-06-11T14:22:21.807Z,8.50
2023-06-11T14:27:23.600Z,9.48
2023-06-11T14:32:28.817Z,9.23
2023-06-11T14:37:30.687Z,8.48
2023-06-11T14:42:32.464Z,8.18
2023-06-11T14:47:34.963Z,12.10
2023-06-11T14:52:36.923Z,8.88
2023-06-11T14:57:38.935Z,7.40
2023-06-11T15:02:40.919Z,8.93
2023-06-11T15:07:42.796Z,7.75
2023-06-11T15:12:52.716Z,8.75
2023-06-11T15:17:54.514Z,7.72
2023-06-11T15:22:56.323Z,9.15
2023-06-11T15:27:58.212Z,8.00
2023-06-11T15:33:00.203Z,8.55
2023-06-11T15:38:03.394Z,9.45
2023-06-11T15:43:05.246Z,8.75
2023-06-11T15:48:07.058Z,9.55
2023-06-11T15:53:11.966Z,11.48
2023-06-11T15:58:13.758Z,8.55
2023-06-11T16:03:16.424Z,9.15
2023-06-11T16:08:18.386Z,9.50
2023-06-11T16:13:20.196Z,9.30
2023-06-11T16:18:24.357Z,8.57
2023-06-11T16:23:26.310Z,9.38
2023-06-11T16:28:28.094Z,9.40
2023-06-11T16:33:43.715Z,9.63
2023-06-11T16:38:59.527Z,9.38
2023-06-11T16:44:05.649Z,10.02
2023-06-11T16:49:07.478Z,9.75
2023-06-11T16:54:09.445Z,9.55
2023-06-11T16:59:11.245Z,8.32
2023-06-11T17:04:13.183Z,8.70
2023-06-11T17:09:15.133Z,8.70
2023-06-11T17:14:17.093Z,10.57
2023-06-11T17:19:18.900Z,9.55
2023-06-11T17:24:20.854Z,9.82
2023-06-11T17:29:22.734Z,11.18
2023-06-11T17:34:24.653Z,9.60
2023-06-11T17:39:26.467Z,11.10
2023-06-11T17:44:33.977Z,8.90
2023-06-11T17:49:35.797Z,10.18
2023-06-11T17:54:38.078Z,9.82
2023-06-11T17:59:39.890Z,12.82
2023-06-11T18:04:41.704Z,10.27
2023-06-11T18:09:48.982Z,8.05
2023-06-11T18:14:51.075Z,8.80
2023-06-11T18:19:52.861Z,9.95
2023-06-11T18:24:55.037Z,9.82
2023-06-11T18:29:56.850Z,8.95
2023-06-11T18:34:58.596Z,9.45
2023-06-11T18:40:00.624Z,10.95
2023-06-11T18:45:02.451Z,9.32
2023-06-11T18:50:10.985Z,8.80
2023-06-11T18:55:13.409Z,9.00
2023-06-11T19:00:23.182Z,10.77
2023-06-11T19:05:25.142Z,8.27
2023-06-11T19:10:27.751Z,9.40
2023-06-11T19:15:29.546Z,10.10
2023-06-11T19:20:31.467Z,9.90
2023-06-11T19:25:42.582Z,8.97
2023-06-11T19:30:45.577Z,9.80
2023-06-11T19:35:47.473Z,9.77
2023-06-11T19:40:50.769Z,10.20
2023-06-11T19:45:52.538Z,11.07
2023-06-11T19:50:54.464Z,10.77
2023-06-11T19:55:56.551Z,9.43
2023-06-11T20:00:58.433Z,11.43
2023-06-11T20:06:03.084Z,9.20
2023-06-11T20:11:12.648Z,9.10
2023-06-11T20:16:15.011Z,10.73
2023-06-11T20:21:16.916Z,8.90
2023-06-11T20:26:18.932Z,10.00
2023-06-11T20:31:21.158Z,11.03
2023-06-11T20:36:23.078Z,10.17
2023-06-11T20:41:30.781Z,9.90
2023-06-11T20:46:32.916Z,9.17
2023-06-11T20:51:34.809Z,10.73
2023-06-11T20:56:36.643Z,10.13
2023-06-11T21:01:38.514Z,10.17
2023-06-11T21:06:40.711Z,10.47
2023-06-11T21:11:42.824Z,9.00
2023-06-11T21:16:44.820Z,10.43
2023-06-11T21:21:48.588Z,9.20
2023-06-11T21:26:50.575Z,10.97
2023-06-11T21:31:52.442Z,9.77
2023-06-11T21:36:54.348Z,8.77
2023-06-11T21:41:56.131Z,8.80
2023-06-11T21:46:59.951Z,11.37
2023-06-11T21:52:03.109Z,10.63
2023-06-11T21:57:05.429Z,10.13
2023-06-11T22:02:10.738Z,8.17
2023-06-11T22:07:14.429Z,9.07
2023-06-11T22:12:16.202Z,8.37
2023-06-11T22:17:18.378Z,10.03
2023-06-11T22:22:20.217Z,8.70
2023-06-11T22:27:27.328Z,8.40
2023-06-11T22:32:29.125Z,10.10
2023-06-11T22:37:31.238Z,11.33
2023-06-11T22:42:33.874Z,9.47
2023-06-11T22:47:36.545Z,9.27
2023-06-11T22:52:50.587Z,9.13
2023-06-11T22:57:52.600Z,9.77
2023-06-11T23:03:01.869Z,10.17
2023-06-11T23:08:03.989Z,8.93
2023-06-11T23:13:05.813Z,9.13
2023-06-11T23:18:10.726Z,10.17
2023-06-11T23:23:12.570Z,10.40
2023-06-11T23:28:14.441Z,11.07
2023-06-11T23:33:16.488Z,12.27
2023-06-11T23:38:18.348Z,8.57
2023-06-11T23:43:20.167Z,11.60
2023-06-11T23:48:22.008Z,10.70
2023-06-11T23:53:24.142Z,9.93
2023-06-11T23:58:26.003Z,9.63
